Time;durP1;ratioP1;P1;durP2;ratioP2;P2;SDS_P1;SDS_P2;PMS_P1;PMS_P2;Temp;Humidity;BMP_temperature;BMP_pressure;BME280_temperature;BME280_humidity;BME280_pressure;Samples;Min_cycle;Max_cycle;Signal;HPM_P1;HPM_P2
2023/03/08 00:03:26;;;;;;;16.10;9.80;;;;;;;5.13;74.08;97211.35;271101;1266;22356;-83
2023/03/08 00:09:29;;;;;;;15.60;9.00;;;;;;;5.11;74.07;97215.52;270443;1269;22611;-83
2023/03/08 00:15:31;;;;;;;19.00;9.40;;;;;;;5.06;74.42;97226.27;270378;1269;22183;-83
2023/03/08 00:21:32;;;;;;;17.90;9.10;;;;;;;5.02;74.60;97236.80;273362;1263;22170;-83
2023/03/08 00:27:37;;;;;;;16.00;9.80;;;;;;;5.00;74.72;97235.85;273422;1269;23559;-83
2023/03/08 00:33:38;;;;;;;14.80;8.10;;;;;;;4.99;74.74;97237.31;273464;1269;22972;-83
2023/03/08 00:39:41;;;;;;;15.60;8.50;;;;;;;4.99;74.88;97238.25;271091;1269;22550;-83
2023/03/08 00:45:43;;;;;;;17.80;9.00;;;;;;;4.94;75.17;97235.52;271988;1268;23574;-83
2023/03/08 00:51:44;;;;;;;16.60;9.20;;;;;;;4.91;75.41;97235.05;273142;1269;23930;-83
2023/03/08 00:57:46;;;;;;;18.40;9.60;;;;;;;4.91;75.66;97234.66;273423;1269;22839;-83
2023/03/08 01:03:48;;;;;;;17.40;8.20;;;;;;;4.91;75.77;97234.58;270977;1269;22225;-82
2023/03/08 01:09:54;;;;;;;18.10;9.30;;;;;;;4.89;75.86;97239.67;272136;1270;22400;-83
2023/03/08 01:15:56;;;;;;;16.50;9.20;;;;;;;4.84;76.01;97244.45;271820;1270;22390;-83
2023/03/08 01:21:58;;;;;;;17.90;10.10;;;;;;;4.80;76.34;97248.00;269348;1270;24492;-82
2023/03/08 01:28:00;;;;;;;21.10;10.70;;;;;;;4.76;76.59;97247.35;269798;1257;22609;-83
2023/03/08 01:34:02;;;;;;;22.90;11.30;;;;;;;4.70;76.81;97244.22;270940;1270;22585;-83
2023/03/08 01:40:05;;;;;;;21.50;11.50;;;;;;;4.61;76.98;97245.40;271873;1270;25447;-83
2023/03/08 01:46:14;;;;;;;23.20;13.20;;;;;;;4.53;77.18;97247.29;269758;1270;22568;-82
2023/03/08 01:52:34;;;;;;;31.00;13.70;;;;;;;4.47;77.32;97250.34;273036;1270;22204;-83
2023/03/08 01:58:39;;;;;;;30.90;12.70;;;;;;;4.44;77.51;97251.24;270373;1257;22951;-83
2023/03/08 02:04:40;;;;;;;30.30;14.20;;;;;;;4.39;77.71;97250.13;270911;1270;22439;-83
2023/03/08 02:10:45;;;;;;;28.30;13.10;;;;;;;4.35;77.92;97257.13;269675;1269;22224;-83
2023/03/08 02:16:47;;;;;;;31.80;15.00;;;;;;;4.33;78.04;97259.21;272080;1269;22446;-83
2023/03/08 02:22:52;;;;;;;27.20;14.80;;;;;;;4.26;77.88;97247.86;269387;1269;22696;-83
2023/03/08 02:28:53;;;;;;;21.20;12.50;;;;;;;4.13;77.79;97241.64;268828;1269;22535;-83
2023/03/08 02:34:56;;;;;;;22.90;12.50;;;;;;;4.10;77.69;97245.63;270172;1269;23871;-83
2023/03/08 02:40:58;;;;;;;21.80;12.70;;;;;;;4.08;77.22;97249.64;269701;1269;22641;-82
2023/03/08 02:46:59;;;;;;;26.50;14.00;;;;;;;4.05;76.85;97247.45;270608;1259;22445;-83
2023/03/08 02:53:02;;;;;;;26.10;12.40;;;;;;;4.06;76.62;97250.93;272572;1269;22700;-84
2023/03/08 02:59:04;;;;;;;21.50;11.50;;;;;;;4.05;76.24;97243.89;271606;1269;22566;-82
2023/03/08 03:05:09;;;;;;;17.30;9.90;;;;;;;4.01;75.83;97243.23;270872;1269;23676;-84
2023/03/08 03:11:18;;;;;;;16.10;10.00;;;;;;;3.97;75.49;97239.48;269373;1260;22540;-84
2023/03/08 03:17:21;;;;;;;15.50;9.20;;;;;;;3.90;75.32;97237.18;270102;1269;23030;-83
2023/03/08 03:23:23;;;;;;;17.00;10.00;;;;;;;3.82;75.02;97241.83;270380;1260;22218;-83
2023/03/08 03:29:27;;;;;;;17.10;8.80;;;;;;;3.63;74.93;97257.10;269568;1269;22548;-83
2023/03/08 03:35:37;;;;;;;20.20;9.10;;;;;;;3.39;75.22;97263.95;271835;1269;22542;-84
2023/03/08 03:41:40;;;;;;;24.40;9.90;;;;;;;3.21;75.22;97277.80;269444;1269;24260;-82
2023/03/08 03:47:46;;;;;;;28.20;11.40;;;;;;;3.07;75.23;97293.30;269416;1269;22745;-82
2023/03/08 03:53:48;;;;;;;20.10;8.70;;;;;;;2.94;75.31;97299.70;269307;1269;22628;-82
2023/03/08 03:59:50;;;;;;;22.00;8.90;;;;;;;2.82;75.51;97306.30;269296;1269;22753;-83
2023/03/08 04:05:54;;;;;;;27.10;10.00;;;;;;;2.71;75.70;97327.31;269590;1269;25475;-83
2023/03/08 04:12:01;;;;;;;18.70;8.50;;;;;;;2.67;75.75;97339.22;269719;1269;22552;-82
2023/03/08 04:18:03;;;;;;;16.40;8.20;;;;;;;2.75;75.56;97346.77;269605;1269;24254;-81
2023/03/08 04:24:07;;;;;;;15.40;8.00;;;;;;;3.02;75.48;97350.70;270066;1269;22450;-82
2023/03/08 04:30:09;;;;;;;14.80;7.50;;;;;;;3.32;75.16;97360.14;273240;1269;22154;-82
2023/03/08 04:36:12;;;;;;;16.60;7.70;;;;;;;3.42;74.90;97367.47;272612;1269;23204;-82
2023/03/08 04:42:14;;;;;;;13.10;7.20;;;;;;;3.50;74.72;97374.37;272789;1269;24381;-82
2023/03/08 04:48:16;;;;;;;14.20;7.30;;;;;;;3.57;74.56;97380.95;272579;1269;22422;-82
2023/03/08 04:54:18;;;;;;;13.60;6.80;;;;;;;3.64;74.48;97391.88;270173;1269;24359;-82
2023/03/08 05:00:24;;;;;;;15.40;7.40;;;;;;;3.72;74.50;97390.80;269874;1269;25389;-82
2023/03/08 05:06:27;;;;;;;13.10;7.40;;;;;;;3.76;74.65;97392.24;269222;1269;22640;-82
2023/03/08 05:12:29;;;;;;;13.20;7.00;;;;;;;3.80;74.48;97398.95;270717;1269;22187;-83
2023/03/08 05:18:33;;;;;;;16.90;7.90;;;;;;;3.81;74.40;97403.37;271517;1269;22591;-83
2023/03/08 05:24:39;;;;;;;20.00;9.40;;;;;;;3.86;74.28;97407.45;270675;1269;22694;-82
2023/03/08 05:30:42;;;;;;;16.90;8.60;;;;;;;3.89;74.27;97410.04;272426;1259;22418;-82
2023/03/08 05:36:44;;;;;;;15.20;7.50;;;;;;;3.91;74.01;97413.30;271952;1269;22295;-83
2023/03/08 05:42:46;;;;;;;14.80;8.00;;;;;;;3.98;73.76;97415.26;271190;1269;22428;-83
2023/03/08 05:48:48;;;;;;;16.50;8.10;;;;;;;4.03;73.71;97412.06;272771;1269;22380;-82
2023/03/08 05:54:53;;;;;;;15.80;8.00;;;;;;;4.17;73.50;97419.09;273555;1275;22929;-82
2023/03/08 06:01:16;;;;;;;13.10;7.40;;;;;;;4.24;73.31;97424.52;272100;1269;22545;-82
2023/03/08 06:07:18;;;;;;;14.50;7.80;;;;;;;4.28;73.06;97429.58;270641;1269;22459;-82
2023/03/08 06:13:40;;;;;;;17.70;8.30;;;;;;;4.30;72.96;97455.83;272345;1260;22533;-83
2023/03/08 06:19:42;;;;;;;16.10;8.60;;;;;;;4.30;73.10;97452.67;273015;1262;22544;-82
2023/03/08 06:25:46;;;;;;;19.10;8.80;;;;;;;4.35;73.12;97448.09;273167;1269;22534;-82
2023/03/08 06:31:48;;;;;;;15.90;8.60;;;;;;;4.45;73.15;97443.23;269434;1269;22437;-81
2023/03/08 06:37:50;;;;;;;22.30;8.90;;;;;;;4.56;73.12;97463.40;270363;1269;22367;-82
2023/03/08 06:43:52;;;;;;;17.80;7.60;;;;;;;4.67;73.03;97474.03;270513;1260;22530;-80
2023/03/08 06:50:06;;;;;;;18.30;8.20;;;;;;;4.82;73.21;97493.70;271977;1260;22264;-82
2023/03/08 06:56:12;;;;;;;13.60;7.50;;;;;;;5.02;73.16;97499.23;273442;1269;22215;-82
2023/03/08 07:02:15;;;;;;;13.70;6.70;;;;;;;5.25;72.79;97506.00;272968;1262;22299;-83
2023/03/08 07:08:16;;;;;;;15.50;8.30;;;;;;;5.48;72.68;97514.11;273303;1269;23507;-82
2023/03/08 07:14:18;;;;;;;15.30;8.80;;;;;;;5.87;72.55;97521.14;270646;1269;26606;-82
2023/03/08 07:20:21;;;;;;;14.80;7.70;;;;;;;6.12;71.50;97527.65;269743;1269;22952;-82
2023/03/08 07:26:22;;;;;;;13.80;8.70;;;;;;;6.00;70.84;97538.05;270270;1259;22563;-82
2023/03/08 07:32:27;;;;;;;21.60;11.80;;;;;;;5.86;70.90;97542.94;270218;1269;22530;-82
2023/03/08 07:39:06;;;;;;;14.20;8.80;;;;;;;5.76;70.74;97537.57;270449;1273;23365;-83
2023/03/08 07:45:10;;;;;;;14.40;7.60;;;;;;;6.15;70.88;97531.99;272468;1263;22436;-83
2023/03/08 07:51:12;;;;;;;15.80;8.70;;;;;;;6.90;70.23;97531.10;272348;1262;22420;-84
2023/03/08 07:57:14;;;;;;;18.50;8.80;;;;;;;7.19;68.87;97531.08;272257;1262;23576;-83
2023/03/08 08:03:16;;;;;;;19.10;8.60;;;;;;;7.63;68.09;97544.46;270474;1273;22656;-84
2023/03/08 08:09:18;;;;;;;15.00;8.60;;;;;;;8.07;67.44;97552.90;269208;1269;23115;-83
2023/03/08 08:15:20;;;;;;;11.90;7.50;;;;;;;8.00;66.85;97560.15;271213;1269;22348;-84
2023/03/08 08:21:22;;;;;;;14.80;8.90;;;;;;;8.15;66.64;97560.44;269555;1269;22538;-83
2023/03/08 08:27:24;;;;;;;16.40;8.90;;;;;;;8.03;65.78;97566.85;270030;1269;24231;-84
2023/03/08 08:33:27;;;;;;;20.90;9.40;;;;;;;7.85;65.25;97567.64;269588;1269;24347;-82
2023/03/08 08:39:29;;;;;;;15.70;8.70;;;;;;;8.29;65.27;97554.17;269506;1259;24152;-83
2023/03/08 08:45:31;;;;;;;13.70;8.20;;;;;;;9.10;64.88;97545.63;271600;1269;22508;-83
2023/03/08 08:51:32;;;;;;;15.00;8.80;;;;;;;9.67;63.03;97545.00;271782;1258;22567;-82
2023/03/08 08:57:34;;;;;;;15.10;8.70;;;;;;;10.10;62.02;97548.05;272525;1259;22311;-83
2023/03/08 09:03:36;;;;;;;13.20;7.90;;;;;;;10.63;61.37;97548.70;271237;1269;22547;-83
2023/03/08 09:09:38;;;;;;;18.40;8.90;;;;;;;11.32;60.19;97541.28;270481;1269;22603;-83
2023/03/08 09:15:40;;;;;;;13.20;8.40;;;;;;;11.82;58.89;97538.77;269469;1269;23019;-82
2023/03/08 09:21:41;;;;;;;10.70;7.00;;;;;;;12.08;57.90;97542.16;272590;1269;22509;-85
2023/03/08 09:27:43;;;;;;;14.40;7.20;;;;;;;11.86;56.64;97545.36;273099;1269;22173;-83
2023/03/08 09:33:47;;;;;;;9.70;6.70;;;;;;;11.15;56.35;97545.98;271906;1269;22593;-83
2023/03/08 09:39:50;;;;;;;13.80;8.40;;;;;;;10.63;56.04;97541.92;269918;1269;22537;-83
2023/03/08 09:45:53;;;;;;;11.70;7.30;;;;;;;10.39;55.97;97543.45;271605;1269;22482;-83
2023/03/08 09:52:03;;;;;;;10.80;6.80;;;;;;;10.93;55.75;97544.48;272968;1269;22514;-84
2023/03/08 09:58:31;;;;;;;10.30;7.60;;;;;;;11.92;54.78;97541.65;273221;1262;23356;-84
2023/03/08 10:05:02;;;;;;;9.70;7.00;;;;;;;12.88;53.32;97541.70;269825;1258;24254;-83
2023/03/08 10:11:14;;;;;;;9.80;6.80;;;;;;;12.60;51.50;97535.75;270052;1269;138844;-83
2023/03/08 10:17:20;;;;;;;10.20;6.50;;;;;;;11.98;50.61;97517.96;269225;1269;22661;-82
2023/03/08 10:23:23;;;;;;;11.10;6.40;;;;;;;12.22;51.27;97515.80;269400;1269;22607;-83
2023/03/08 10:29:24;;;;;;;9.30;6.20;;;;;;;13.17;50.11;97510.53;269311;1269;22488;-84
2023/03/08 10:35:36;;;;;;;11.10;6.20;;;;;;;14.09;49.72;97507.81;270513;1269;22575;-84
2023/03/08 10:41:50;;;;;;;8.50;5.40;;;;;;;13.71;48.28;97504.78;269684;1259;22626;-84
2023/03/08 10:47:57;;;;;;;9.10;5.80;;;;;;;12.55;48.22;97503.36;270832;1269;22534;-84
2023/03/08 10:54:04;;;;;;;11.20;5.90;;;;;;;11.49;48.30;97501.79;270981;1259;22481;-83
2023/03/08 11:00:20;;;;;;;8.50;5.60;;;;;;;10.68;48.70;97501.42;271233;1269;22421;-84
2023/03/08 11:06:23;;;;;;;11.00;6.20;;;;;;;10.34;48.88;97498.89;269697;1269;23895;-83
2023/03/08 11:12:25;;;;;;;11.60;6.80;;;;;;;10.60;49.28;97501.38;270265;1269;22504;-83
2023/03/08 11:18:45;;;;;;;11.40;6.60;;;;;;;10.86;48.41;97501.02;273294;1269;22242;-83
2023/03/08 11:25:08;;;;;;;13.30;6.20;;;;;;;10.54;48.03;97497.54;272642;1269;22398;-83
2023/03/08 11:31:21;;;;;;;10.70;6.40;;;;;;;10.32;48.94;97490.38;273527;1269;23033;-83
2023/03/08 11:37:31;;;;;;;8.70;5.30;;;;;;;10.19;49.01;97480.70;273514;1269;22420;-82
2023/03/08 11:43:44;;;;;;;8.70;5.60;;;;;;;10.17;49.89;97479.87;273260;1262;23152;-83
2023/03/08 11:50:14;;;;;;;10.80;5.80;;;;;;;10.07;49.29;97465.59;273322;1269;22430;-83
2023/03/08 11:56:28;;;;;;;9.60;5.30;;;;;;;9.97;49.11;97458.02;273543;1269;22435;-83
2023/03/08 12:02:33;;;;;;;10.20;5.80;;;;;;;10.00;49.56;97456.75;273378;1269;22571;-83
2023/03/08 12:08:39;;;;;;;10.50;6.20;;;;;;;10.00;49.43;97458.38;270864;1269;22572;-83
2023/03/08 12:14:58;;;;;;;9.80;5.80;;;;;;;9.87;49.70;97462.66;270602;1269;22390;-83
2023/03/08 12:21:19;;;;;;;13.60;6.00;;;;;;;9.68;49.53;97465.35;273417;1269;23229;-83
2023/03/08 12:27:42;;;;;;;16.00;5.90;;;;;;;9.52;50.31;97447.09;271299;1269;23594;-82
2023/03/08 12:33:47;;;;;;;10.90;5.70;;;;;;;9.67;50.64;97428.75;270321;1269;22568;-83
2023/03/08 12:40:05;;;;;;;9.60;6.50;;;;;;;10.29;50.57;97415.16;270688;1269;22520;-83
2023/03/08 12:46:09;;;;;;;8.70;5.90;;;;;;;10.87;49.76;97407.08;270216;1269;22538;-83
2023/03/08 12:52:18;;;;;;;12.30;6.20;;;;;;;10.93;49.29;97405.42;270452;1269;22516;-84
2023/03/08 12:58:21;;;;;;;10.30;5.40;;;;;;;10.71;48.74;97408.24;271846;1269;23668;-83
2023/03/08 13:04:38;;;;;;;9.30;5.40;;;;;;;10.54;48.66;97403.42;271683;1269;22528;-83
2023/03/08 13:10:59;;;;;;;8.30;5.00;;;;;;;10.78;48.76;97395.25;270546;1269;25309;-84
2023/03/08 13:17:01;;;;;;;10.00;5.40;;;;;;;10.95;48.26;97382.55;269643;1269;23140;-84
2023/03/08 13:23:07;;;;;;;8.60;5.70;;;;;;;10.94;47.83;97378.96;271790;1269;22525;-85
2023/03/08 13:29:15;;;;;;;8.50;5.50;;;;;;;10.79;47.73;97368.88;270074;1263;22536;-83
2023/03/08 13:35:17;;;;;;;11.20;4.80;;;;;;;10.65;47.82;97361.20;270480;1269;22193;-84
2023/03/08 13:41:31;;;;;;;9.00;5.30;;;;;;;10.60;48.03;97362.67;272105;1269;22566;-83
2023/03/08 13:47:35;;;;;;;8.20;4.70;;;;;;;10.48;47.84;97361.61;273254;1269;22456;-84
2023/03/08 13:53:39;;;;;;;8.00;5.10;;;;;;;10.32;47.62;97347.85;273147;1262;22388;-84
2023/03/08 13:59:47;;;;;;;7.30;4.70;;;;;;;10.22;48.08;97344.79;273239;1269;22323;-84
2023/03/08 14:05:49;;;;;;;9.10;4.90;;;;;;;10.19;48.25;97339.67;273135;1260;22241;-84
2023/03/08 14:12:03;;;;;;;12.40;6.20;;;;;;;10.08;48.09;97330.76;273220;1269;22333;-83
2023/03/08 14:18:07;;;;;;;11.00;5.20;;;;;;;9.95;48.10;97323.34;271661;1270;22895;-84
2023/03/08 14:24:19;;;;;;;11.20;5.40;;;;;;;9.75;48.12;97321.88;270003;1269;23361;-83
2023/03/08 14:30:24;;;;;;;10.90;6.00;;;;;;;9.56;48.50;97310.86;269280;1270;25243;-85
2023/03/08 14:36:29;;;;;;;10.10;6.60;;;;;;;9.37;48.64;97298.50;268746;1269;23710;-83
2023/03/08 14:42:40;;;;;;;12.40;7.10;;;;;;;9.26;48.97;97287.78;269536;1269;22546;-84
2023/03/08 14:48:42;;;;;;;10.20;5.90;;;;;;;9.14;49.40;97273.40;272196;1269;23790;-84
2023/03/08 14:54:44;;;;;;;9.60;6.20;;;;;;;9.07;49.86;97260.38;270080;1269;22553;-83
2023/03/08 15:00:50;;;;;;;7.70;4.70;;;;;;;8.90;49.52;97247.92;271866;1269;22358;-85
2023/03/08 15:06:53;;;;;;;5.70;3.10;;;;;;;8.79;49.66;97244.54;273102;1269;22889;-83
2023/03/08 15:12:55;;;;;;;13.50;5.80;;;;;;;8.73;49.84;97239.84;269968;1269;22981;-84
2023/03/08 15:18:57;;;;;;;10.10;4.80;;;;;;;8.68;50.14;97240.11;269332;1269;24336;-82
2023/03/08 15:24:59;;;;;;;6.90;4.00;;;;;;;8.59;49.95;97242.15;269057;1269;22587;-84
2023/03/08 15:31:00;;;;;;;6.40;4.20;;;;;;;8.52;49.58;97242.52;269407;1269;25398;-83
2023/03/08 15:37:02;;;;;;;8.70;4.50;;;;;;;8.43;49.89;97247.35;269063;1269;22557;-83
2023/03/08 15:43:04;;;;;;;6.80;4.20;;;;;;;8.30;50.33;97242.63;270487;1269;22540;-84
2023/03/08 15:49:05;;;;;;;7.40;4.60;;;;;;;8.11;51.55;97243.84;269295;1269;22728;-84
2023/03/08 15:55:09;;;;;;;7.60;4.40;;;;;;;7.90;52.35;97236.50;270003;1269;22630;-82
2023/03/08 16:01:11;;;;;;;7.90;5.00;;;;;;;7.67;53.44;97234.30;270168;1269;22546;-82
2023/03/08 16:07:17;;;;;;;7.60;4.40;;;;;;;7.40;55.19;97232.73;270920;1269;24484;-82
2023/03/08 16:13:22;;;;;;;7.90;4.60;;;;;;;7.22;56.15;97226.27;272419;1269;26487;-83
2023/03/08 16:19:24;;;;;;;13.90;6.10;;;;;;;7.11;57.12;97230.05;269467;1269;22544;-83
2023/03/08 16:25:26;;;;;;;9.10;5.70;;;;;;;7.04;58.69;97232.48;270363;1269;22365;-83
2023/03/08 16:31:29;;;;;;;15.60;8.00;;;;;;;6.90;59.47;97231.59;270292;1269;22522;-83
2023/03/08 16:37:30;;;;;;;13.70;7.30;;;;;;;6.78;60.23;97232.16;270787;1269;22563;-83
2023/03/08 16:43:32;;;;;;;12.80;6.70;;;;;;;6.66;61.86;97232.43;269803;1269;22527;-84
2023/03/08 16:49:34;;;;;;;11.50;6.70;;;;;;;6.53;63.34;97237.96;269949;1269;22348;-85
2023/03/08 16:55:36;;;;;;;11.20;6.40;;;;;;;6.40;64.49;97241.15;270469;1269;22528;-83
2023/03/08 17:01:41;;;;;;;12.30;6.80;;;;;;;6.33;65.98;97236.58;271063;1269;22420;-82
2023/03/08 17:07:45;;;;;;;17.10;7.40;;;;;;;6.22;66.80;97226.41;271491;1269;22541;-82
2023/03/08 17:13:51;;;;;;;14.60;8.20;;;;;;;6.14;67.27;97228.89;270829;1269;25530;-82
2023/03/08 17:19:53;;;;;;;14.90;8.10;;;;;;;6.08;68.39;97226.09;270540;1269;24245;-83
2023/03/08 17:25:55;;;;;;;14.40;7.40;;;;;;;6.01;68.55;97214.44;269855;1269;22557;-81
2023/03/08 17:31:57;;;;;;;18.90;9.40;;;;;;;5.95;68.55;97206.83;269712;1269;22392;-83
2023/03/08 17:37:59;;;;;;;18.80;9.60;;;;;;;5.96;68.90;97197.67;272091;1267;22538;-83
2023/03/08 17:44:01;;;;;;;17.10;9.50;;;;;;;5.94;69.53;97196.21;269478;1269;22359;-84
2023/03/08 17:50:04;;;;;;;16.30;10.10;;;;;;;5.88;69.98;97193.34;273149;1269;22480;-83
2023/03/08 17:56:08;;;;;;;31.30;18.70;;;;;;;5.80;70.15;97186.63;273086;1269;22877;-83
2023/03/08 18:02:10;;;;;;;33.70;16.90;;;;;;;5.72;70.34;97174.05;265747;1260;10002169;-83
2023/03/08 18:08:12;;;;;;;32.80;17.80;;;;;;;5.68;70.96;97170.25;273426;1269;22653;-83
2023/03/08 18:14:14;;;;;;;38.00;21.90;;;;;;;5.65;71.15;97162.10;271350;1269;23296;-83
2023/03/08 18:20:17;;;;;;;42.00;23.30;;;;;;;5.62;70.73;97156.50;269585;1269;25622;-82
2023/03/08 18:26:19;;;;;;;40.60;22.60;;;;;;;5.55;70.87;97146.80;273218;1269;22280;-83
2023/03/08 18:32:21;;;;;;;35.30;20.10;;;;;;;5.46;71.23;97136.87;270971;1269;22714;-84
2023/03/08 18:38:23;;;;;;;36.20;20.70;;;;;;;5.36;71.53;97127.70;271616;1269;22401;-83
2023/03/08 18:44:25;;;;;;;32.60;19.70;;;;;;;5.32;72.08;97123.13;270796;1261;22654;-83
2023/03/08 18:50:27;;;;;;;39.90;21.00;;;;;;;5.29;72.59;97111.18;271057;1269;22407;-83
2023/03/08 18:56:29;;;;;;;31.80;18.30;;;;;;;5.26;72.95;97098.77;270248;1269;22776;-83
2023/03/08 19:02:31;;;;;;;40.90;21.00;;;;;;;5.20;73.10;97078.07;272044;1260;23711;-83
2023/03/08 19:08:33;;;;;;;40.70;21.80;;;;;;;5.15;73.74;97067.84;271189;1269;24224;-83
2023/03/08 19:14:35;;;;;;;44.30;22.60;;;;;;;5.06;74.14;97058.77;271089;1269;22421;-83
2023/03/08 19:20:38;;;;;;;77.20;29.90;;;;;;;4.92;74.35;97050.59;271168;1267;23270;-83
2023/03/08 19:26:42;;;;;;;69.50;30.50;;;;;;;4.80;75.63;97043.84;271073;1269;22553;-82
2023/03/08 19:32:43;;;;;;;53.60;27.70;;;;;;;4.73;76.10;97038.77;271082;1269;22190;-82
2023/03/08 19:38:45;;;;;;;57.30;27.00;;;;;;;4.64;76.41;97034.56;272384;1269;23777;-83
2023/03/08 19:44:49;;;;;;;55.60;26.80;;;;;;;4.57;76.92;97028.04;272173;1269;22908;-81
2023/03/08 19:50:51;;;;;;;53.80;27.70;;;;;;;4.54;77.45;97025.17;273398;1269;23632;-82
2023/03/08 19:56:54;;;;;;;62.10;31.20;;;;;;;4.50;77.75;97017.41;271797;1269;22436;-83
2023/03/08 20:02:58;;;;;;;57.90;29.90;;;;;;;4.54;77.83;97014.80;271096;1269;24364;-83
2023/03/08 20:09:01;;;;;;;63.30;32.90;;;;;;;4.61;77.75;97005.84;271478;1269;23384;-82
2023/03/08 20:15:03;;;;;;;67.40;34.20;;;;;;;4.66;77.82;96998.56;272745;1269;22829;-83
2023/03/08 20:21:05;;;;;;;75.50;38.30;;;;;;;4.69;77.87;96987.10;273283;1269;22283;-83
2023/03/08 20:27:06;;;;;;;65.30;36.50;;;;;;;4.71;78.31;96976.73;272313;1269;22432;-83
2023/03/08 20:33:09;;;;;;;68.90;35.70;;;;;;;4.73;78.86;96969.39;271662;1269;22562;-82
2023/03/08 20:39:12;;;;;;;78.80;39.50;;;;;;;4.66;79.79;96959.08;272638;1269;22586;-83
2023/03/08 20:45:13;;;;;;;79.50;38.70;;;;;;;4.59;80.56;96951.23;271288;1269;22429;-82
2023/03/08 20:51:17;;;;;;;68.50;34.50;;;;;;;4.60;81.05;96945.98;273310;1269;22387;-83
2023/03/08 20:57:20;;;;;;;65.60;34.20;;;;;;;4.60;81.43;96939.70;273250;1269;22591;-83
2023/03/08 21:03:22;;;;;;;64.60;33.80;;;;;;;4.58;81.68;96940.25;273015;1262;22420;-83
2023/03/08 21:09:24;;;;;;;58.30;31.50;;;;;;;4.57;81.74;96927.23;273136;1256;23274;-83
2023/03/08 21:15:25;;;;;;;48.40;26.30;;;;;;;4.59;81.83;96919.89;271842;1260;22205;-81
2023/03/08 21:21:41;;;;;;;44.40;22.50;;;;;;;4.65;82.05;96905.58;271001;1259;23147;-83
2023/03/08 21:27:43;;;;;;;33.10;17.70;;;;;;;4.77;82.40;96904.49;273125;1269;22184;-82
2023/03/08 21:33:45;;;;;;;24.70;13.80;;;;;;;4.91;83.06;96899.30;273278;1269;22691;-83
2023/03/08 21:39:47;;;;;;;27.40;13.20;;;;;;;5.04;83.61;96890.77;273350;1269;22919;-82
2023/03/08 21:45:49;;;;;;;27.30;13.80;;;;;;;5.12;83.78;96887.67;273307;1260;22410;-82
2023/03/08 21:51:51;;;;;;;25.20;13.40;;;;;;;5.17;83.85;96881.85;272753;1256;22630;-83
2023/03/08 21:57:53;;;;;;;36.60;16.50;;;;;;;5.22;84.06;96880.30;273195;1269;22515;-83
2023/03/08 22:03:56;;;;;;;29.40;15.40;;;;;;;5.29;84.09;96874.63;273072;1269;23066;-82
2023/03/08 22:09:58;;;;;;;29.40;15.40;;;;;;;5.39;84.08;96872.34;273087;1267;120411;-83
2023/03/08 22:15:59;;;;;;;19.10;11.00;;;;;;;5.54;84.65;96875.41;273155;1268;23643;-82
2023/03/08 22:22:01;;;;;;;15.00;8.10;;;;;;;5.88;85.08;96871.73;272521;1269;22577;-81
2023/03/08 22:28:03;;;;;;;13.00;8.00;;;;;;;6.35;85.37;96870.25;273065;1257;22483;-83
2023/03/08 22:34:06;;;;;;;17.20;8.90;;;;;;;6.67;85.03;96872.66;273383;1269;22394;-83
2023/03/08 22:40:09;;;;;;;20.00;9.50;;;;;;;6.93;85.14;96867.56;270452;1265;23494;-83
2023/03/08 22:46:15;;;;;;;15.00;8.30;;;;;;;7.07;85.52;96862.77;270233;1269;22205;-83
2023/03/08 22:52:17;;;;;;;17.20;9.80;;;;;;;7.13;85.74;96866.14;270609;1269;22177;-83
2023/03/08 22:58:19;;;;;;;20.80;9.40;;;;;;;7.14;86.11;96865.13;269541;1267;25501;-82
2023/03/08 23:04:20;;;;;;;14.30;8.60;;;;;;;7.12;86.76;96861.58;269499;1269;22596;-82
2023/03/08 23:10:22;;;;;;;14.00;8.60;;;;;;;7.06;87.34;96859.30;270022;1269;24215;-82
2023/03/08 23:16:24;;;;;;;16.30;9.80;;;;;;;7.05;87.91;96860.23;269501;1254;24211;-82
2023/03/08 23:22:26;;;;;;;15.60;8.80;;;;;;;7.04;88.05;96859.70;269494;1259;22528;-83
2023/03/08 23:28:28;;;;;;;15.10;8.10;;;;;;;7.09;88.43;96863.61;270622;1269;23758;-83
2023/03/08 23:34:30;;;;;;;17.20;9.40;;;;;;;7.08;88.65;96863.93;273068;1269;22409;-82
2023/03/08 23:40:31;;;;;;;15.30;8.60;;;;;;;7.13;89.16;96862.79;273382;1269;23299;-82
2023/03/08 23:46:33;;;;;;;16.30;9.30;;;;;;;7.14;89.86;96857.49;273316;1262;23527;-83
2023/03/08 23:52:35;;;;;;;18.00;9.80;;;;;;;7.15;90.25;96861.94;273503;1257;23052;-83
2023/03/08 23:58:36;;;;;;;18.20;9.20;;;;;;;7.12;91.05;96858.15;273265;1269;23272;-83
